createdAt,value
2024-01-24T00:00:35.986Z,87.73
2024-01-24T00:03:02.794Z,87.50
2024-01-24T00:05:29.456Z,88.57
2024-01-24T00:07:56.056Z,88.25
2024-01-24T00:10:24.287Z,88.40
2024-01-24T00:12:50.905Z,88.35
2024-01-24T00:15:17.540Z,88.13
2024-01-24T00:17:44.129Z,87.94
2024-01-24T00:20:13.577Z,88.62
2024-01-24T00:22:40.160Z,87.83
2024-01-24T00:25:07.264Z,87.93
2024-01-24T00:27:33.793Z,88.23
2024-01-24T00:30:00.332Z,88.07
2024-01-24T00:32:26.844Z,88.17
2024-01-24T00:34:53.387Z,88.45
2024-01-24T00:37:19.902Z,87.62
2024-01-24T00:39:48.540Z,87.87
2024-01-24T00:42:15.260Z,87.73
2024-01-24T00:44:43.578Z,88.05
2024-01-24T00:47:10.130Z,87.71
2024-01-24T00:49:36.744Z,88.19
2024-01-24T00:52:05.022Z,87.87
2024-01-24T00:54:31.542Z,88.06
2024-01-24T00:56:58.071Z,88.02
2024-01-24T00:59:24.619Z,87.95
2024-01-24T01:01:51.113Z,87.57
2024-01-24T01:04:17.759Z,87.50
2024-01-24T01:06:44.555Z,87.63
2024-01-24T01:09:11.922Z,86.92
2024-01-24T01:11:39.666Z,87.63
2024-01-24T01:14:06.356Z,87.23
2024-01-24T01:16:32.904Z,87.04
2024-01-24T01:19:00.065Z,87.14
2024-01-24T01:21:26.689Z,86.82
2024-01-24T01:23:53.211Z,86.29
2024-01-24T01:26:20.210Z,86.68
2024-01-24T01:28:46.708Z,87.10
2024-01-24T01:31:13.233Z,86.95
2024-01-24T01:33:39.866Z,86.81
2024-01-24T01:36:17.207Z,86.87
2024-01-24T01:38:49.216Z,86.94
2024-01-24T01:41:15.741Z,87.34
2024-01-24T01:43:44.255Z,87.42
2024-01-24T01:46:20.313Z,87.19
2024-01-24T01:48:47.928Z,87.28
2024-01-24T01:51:14.796Z,87.17
2024-01-24T01:53:41.437Z,87.69
2024-01-24T01:56:13.632Z,87.99
2024-01-24T01:58:41.867Z,87.13
2024-01-24T02:01:09.806Z,87.50
2024-01-24T02:03:38.190Z,87.21
2024-01-24T02:06:05.361Z,87.64
2024-01-24T02:08:33.639Z,86.98
2024-01-24T02:11:00.364Z,87.45
2024-01-24T02:13:33.500Z,87.06
2024-01-24T02:16:00.867Z,86.91
2024-01-24T02:18:27.673Z,87.63
2024-01-24T02:20:54.303Z,86.79
2024-01-24T02:23:23.319Z,86.44
2024-01-24T02:25:50.966Z,86.77
2024-01-24T02:28:18.026Z,87.00
2024-01-24T02:30:44.714Z,87.28
2024-01-24T02:33:12.060Z,87.12
2024-01-24T02:35:38.893Z,87.15
2024-01-24T02:38:05.482Z,87.52
2024-01-24T02:40:32.157Z,87.49
2024-01-24T02:42:58.758Z,88.17
2024-01-24T02:45:25.342Z,87.73
2024-01-24T02:47:52.022Z,87.99
2024-01-24T02:50:18.701Z,87.81
2024-01-24T02:52:45.269Z,88.57
2024-01-24T02:55:17.794Z,88.77
2024-01-24T02:57:45.352Z,88.56
2024-01-24T03:00:14.337Z,88.88
2024-01-24T03:02:41.262Z,88.74
2024-01-24T03:05:10.167Z,89.01
2024-01-24T03:07:38.095Z,89.56
2024-01-24T03:10:05.677Z,89.17
2024-01-24T03:12:32.404Z,89.35
2024-01-24T03:14:58.985Z,89.26
2024-01-24T03:17:25.501Z,90.04
2024-01-24T03:19:52.430Z,89.68
2024-01-24T03:22:19.587Z,89.83
2024-01-24T03:24:46.091Z,89.49
2024-01-24T03:27:12.958Z,89.65
2024-01-24T03:29:42.142Z,89.32
2024-01-24T03:32:08.645Z,89.54
2024-01-24T03:34:35.280Z,89.67
2024-01-24T03:37:01.826Z,89.36
2024-01-24T03:39:28.937Z,88.58
2024-01-24T03:41:55.498Z,88.49
2024-01-24T03:44:21.988Z,88.31
2024-01-24T03:46:48.513Z,88.57
2024-01-24T03:49:15.950Z,88.07
2024-01-24T03:51:42.719Z,87.51
2024-01-24T03:54:09.265Z,87.20
2024-01-24T03:56:35.760Z,86.69
2024-01-24T03:59:02.322Z,86.13
2024-01-24T04:01:29.039Z,85.77
2024-01-24T04:03:55.849Z,85.28
2024-01-24T04:06:22.675Z,84.86
2024-01-24T04:08:49.309Z,85.10
2024-01-24T04:11:15.812Z,84.82
2024-01-24T04:13:43.567Z,84.61
2024-01-24T04:16:10.157Z,83.94
2024-01-24T04:18:36.835Z,84.08
2024-01-24T04:21:03.543Z,83.69
2024-01-24T04:23:30.057Z,83.34
2024-01-24T04:25:56.825Z,82.67
2024-01-24T04:28:23.328Z,83.29
2024-01-24T04:30:49.882Z,82.84
2024-01-24T04:33:16.535Z,82.47
2024-01-24T04:35:43.131Z,82.71
2024-01-24T04:38:09.649Z,83.06
2024-01-24T04:40:36.207Z,84.03
2024-01-24T04:43:03.019Z,85.08
2024-01-24T04:45:29.636Z,85.54
2024-01-24T04:47:56.311Z,85.57
2024-01-24T04:50:23.411Z,86.11
2024-01-24T04:52:50.007Z,86.61
2024-01-24T04:55:16.860Z,86.47
2024-01-24T04:57:43.785Z,87.04
2024-01-24T05:00:13.174Z,86.53
2024-01-24T05:02:40.481Z,87.18
2024-01-24T05:05:08.131Z,86.58
2024-01-24T05:07:36.010Z,86.82
2024-01-24T05:10:04.669Z,86.68
2024-01-24T05:12:31.908Z,86.50
2024-01-24T05:14:58.559Z,86.14
2024-01-24T05:17:25.244Z,86.13
2024-01-24T05:19:51.781Z,85.88
2024-01-24T05:22:18.810Z,85.41
2024-01-24T05:24:46.519Z,85.31
2024-01-24T05:27:14.151Z,85.40
2024-01-24T05:29:40.831Z,85.21
2024-01-24T05:32:07.975Z,85.08
2024-01-24T05:34:34.614Z,84.84
2024-01-24T05:37:01.297Z,84.71
2024-01-24T05:39:27.900Z,85.08
2024-01-24T05:41:54.405Z,84.85
2024-01-24T05:44:21.910Z,84.50
2024-01-24T05:46:48.412Z,84.80
2024-01-24T05:49:15.636Z,85.52
2024-01-24T05:51:43.655Z,84.96
2024-01-24T05:54:10.475Z,84.14
2024-01-24T05:56:37.134Z,84.23
2024-01-24T05:59:03.698Z,83.58
2024-01-24T06:01:30.525Z,83.69
2024-01-24T06:03:57.328Z,84.32
2024-01-24T06:06:24.200Z,84.54
2024-01-24T06:08:51.057Z,84.68
2024-01-24T06:11:18.420Z,84.55
2024-01-24T06:13:45.078Z,85.27
2024-01-24T06:16:11.691Z,85.34
2024-01-24T06:18:38.316Z,86.10
2024-01-24T06:21:04.997Z,86.24
2024-01-24T06:23:31.505Z,87.01
2024-01-24T06:25:58.002Z,87.05
2024-01-24T06:28:24.513Z,87.34
2024-01-24T06:30:52.662Z,87.96
2024-01-24T06:33:19.421Z,87.92
2024-01-24T06:35:46.026Z,87.91
2024-01-24T06:38:12.583Z,88.59
2024-01-24T06:40:39.120Z,89.11
2024-01-24T06:43:05.711Z,88.70
2024-01-24T06:45:32.492Z,88.21
2024-01-24T06:48:02.042Z,88.31
2024-01-24T06:50:30.443Z,88.01
2024-01-24T06:52:58.705Z,88.42
2024-01-24T06:55:25.765Z,88.49
2024-01-24T06:57:52.310Z,88.11
2024-01-24T07:00:20.017Z,87.91
2024-01-24T07:02:46.711Z,87.86
2024-01-24T07:05:13.990Z,88.06
2024-01-24T07:07:40.519Z,87.29
2024-01-24T07:10:12.339Z,86.94
2024-01-24T07:12:46.098Z,87.13
2024-01-24T07:15:13.577Z,87.08
2024-01-24T07:17:40.852Z,87.66
2024-01-24T07:20:08.356Z,88.48
2024-01-24T07:22:34.924Z,89.03
2024-01-24T07:25:02.384Z,90.67
2024-01-24T07:27:31.724Z,90.75
2024-01-24T07:29:58.994Z,89.50
2024-01-24T07:32:25.594Z,88.68
2024-01-24T07:34:52.211Z,87.67
2024-01-24T07:37:18.985Z,87.30
2024-01-24T07:39:45.596Z,86.53
2024-01-24T07:42:12.106Z,85.03
2024-01-24T07:44:38.616Z,84.56
2024-01-24T07:47:05.809Z,84.04
2024-01-24T07:49:36.588Z,83.68
2024-01-24T07:52:05.462Z,83.19
2024-01-24T07:54:32.279Z,82.84
2024-01-24T07:56:59.288Z,82.49
2024-01-24T07:59:25.997Z,81.34
2024-01-24T08:01:52.593Z,81.67
2024-01-24T08:04:19.692Z,80.68
2024-01-24T08:06:48.747Z,78.78
2024-01-24T08:09:15.811Z,78.70
2024-01-24T08:11:42.743Z,78.46
2024-01-24T08:14:09.852Z,77.68
2024-01-24T08:16:36.450Z,77.92
2024-01-24T08:19:03.842Z,77.67
2024-01-24T08:21:30.644Z,77.99
2024-01-24T08:23:57.165Z,77.90
2024-01-24T08:26:23.912Z,78.79
2024-01-24T08:28:50.500Z,78.72
2024-01-24T08:31:17.090Z,78.99
2024-01-24T08:33:43.842Z,79.53
2024-01-24T08:36:10.648Z,79.81
2024-01-24T08:38:37.251Z,79.23
2024-01-24T08:41:05.258Z,79.80
2024-01-24T08:43:31.807Z,79.53
2024-01-24T08:45:59.060Z,79.68
2024-01-24T08:48:26.302Z,80.00
2024-01-24T08:50:53.347Z,79.92
2024-01-24T08:53:19.893Z,79.52
2024-01-24T08:55:46.755Z,79.97
2024-01-24T08:58:14.010Z,79.91
2024-01-24T09:00:41.032Z,79.57
2024-01-24T09:03:07.856Z,79.49
2024-01-24T09:05:34.974Z,79.69
2024-01-24T09:08:02.831Z,80.04
2024-01-24T09:10:29.823Z,79.95
2024-01-24T09:12:56.496Z,79.93
2024-01-24T09:15:23.970Z,79.27
2024-01-24T09:17:51.632Z,79.34
2024-01-24T09:20:18.808Z,79.14
2024-01-24T09:22:46.561Z,78.72
2024-01-24T09:25:14.812Z,78.85
2024-01-24T09:27:42.199Z,77.84
2024-01-24T09:30:09.176Z,77.56
2024-01-24T09:32:35.758Z,76.75
2024-01-24T09:35:02.469Z,76.32
2024-01-24T09:37:29.118Z,75.00
2024-01-24T09:39:56.917Z,75.02
2024-01-24T09:42:26.661Z,74.81
2024-01-24T09:44:53.948Z,74.41
2024-01-24T09:47:23.382Z,74.10
2024-01-24T09:49:50.603Z,73.70
2024-01-24T09:52:26.257Z,73.27
2024-01-24T09:55:00.323Z,71.95
2024-01-24T09:57:28.270Z,71.38
2024-01-24T09:59:55.772Z,70.92
2024-01-24T10:02:23.279Z,69.22
2024-01-24T10:04:52.920Z,68.20
2024-01-24T10:07:20.758Z,67.79
2024-01-24T10:09:48.363Z,66.48
2024-01-24T10:12:14.933Z,66.31
2024-01-24T10:14:44.359Z,65.25
2024-01-24T10:17:12.607Z,64.42
2024-01-24T10:19:39.658Z,63.99
2024-01-24T10:22:09.395Z,62.40
2024-01-24T10:24:37.704Z,61.98
2024-01-24T10:27:04.539Z,61.41
2024-01-24T10:29:31.737Z,61.49
2024-01-24T10:31:58.407Z,61.02
2024-01-24T10:34:29.068Z,61.25
2024-01-24T10:36:56.165Z,61.30
2024-01-24T10:39:26.383Z,61.73
2024-01-24T10:41:55.724Z,62.25
2024-01-24T10:44:26.338Z,62.50
2024-01-24T10:46:53.307Z,62.69
2024-01-24T10:49:22.705Z,63.07
2024-01-24T10:51:49.503Z,63.58
2024-01-24T10:54:17.903Z,63.21
2024-01-24T10:56:51.367Z,63.23
2024-01-24T10:59:19.000Z,62.48
2024-01-24T11:01:46.213Z,60.65
2024-01-24T11:04:16.642Z,61.16
2024-01-24T11:06:49.577Z,60.93
2024-01-24T11:09:25.524Z,58.17
2024-01-24T11:11:55.951Z,58.60
2024-01-24T11:14:36.059Z,58.26
2024-01-24T11:17:04.648Z,58.79
2024-01-24T11:19:32.449Z,59.58
2024-01-24T11:22:13.051Z,59.55
2024-01-24T11:24:46.392Z,57.98
2024-01-24T11:27:25.218Z,58.65
2024-01-24T11:29:52.644Z,58.32
2024-01-24T11:32:55.887Z,58.29
2024-01-24T11:35:38.976Z,58.55
2024-01-24T11:38:30.155Z,58.82
2024-01-24T11:41:00.942Z,59.36
2024-01-24T11:43:32.704Z,59.19
2024-01-24T11:46:04.799Z,59.09
2024-01-24T11:48:33.569Z,60.04
2024-01-24T11:51:02.038Z,59.42
2024-01-24T11:53:29.266Z,59.63
2024-01-24T11:56:02.823Z,59.58
2024-01-24T11:58:30.323Z,58.89
2024-01-24T12:01:12.189Z,59.41
2024-01-24T12:03:47.140Z,58.39
2024-01-24T12:06:14.012Z,58.50
2024-01-24T12:08:40.595Z,59.04
2024-01-24T12:11:10.409Z,59.28
2024-01-24T12:13:37.423Z,58.85
2024-01-24T12:16:04.519Z,59.32
2024-01-24T12:18:31.866Z,59.45
2024-01-24T12:21:02.207Z,59.72
2024-01-24T12:23:30.127Z,59.74
2024-01-24T12:25:57.511Z,60.11
2024-01-24T12:28:25.049Z,60.82
2024-01-24T12:30:54.238Z,60.71
2024-01-24T12:33:21.009Z,60.54
2024-01-24T12:35:48.309Z,59.82
2024-01-24T12:38:15.978Z,57.28
2024-01-24T12:40:51.761Z,56.37
2024-01-24T12:43:22.714Z,55.27
2024-01-24T12:45:50.485Z,54.71
2024-01-24T12:48:19.760Z,55.03
2024-01-24T12:50:49.760Z,55.20
2024-01-24T12:53:17.158Z,56.03
2024-01-24T12:55:43.707Z,56.70
2024-01-24T12:58:10.804Z,56.70
2024-01-24T13:00:37.523Z,56.82
2024-01-24T13:03:06.210Z,57.42
2024-01-24T13:05:39.664Z,58.44
2024-01-24T13:08:13.421Z,58.08
2024-01-24T13:10:44.313Z,58.11
2024-01-24T13:13:11.881Z,58.49
2024-01-24T13:15:40.294Z,57.58
2024-01-24T13:18:08.772Z,58.71
2024-01-24T13:20:35.530Z,57.46
2024-01-24T13:23:02.916Z,58.66
2024-01-24T13:25:29.923Z,58.23
2024-01-24T13:27:57.003Z,58.02
2024-01-24T13:30:23.744Z,58.48
2024-01-24T13:32:50.647Z,58.27
2024-01-24T13:35:17.670Z,56.25
2024-01-24T13:37:44.929Z,56.43
2024-01-24T13:40:12.821Z,56.40
2024-01-24T13:42:40.446Z,56.33
2024-01-24T13:45:07.631Z,57.07
2024-01-24T13:47:34.337Z,57.01
2024-01-24T13:50:01.023Z,57.26
2024-01-24T13:52:27.967Z,57.54
2024-01-24T13:54:54.581Z,57.62
2024-01-24T13:57:21.227Z,57.34
2024-01-24T13:59:47.960Z,57.78
2024-01-24T14:02:14.707Z,57.75
2024-01-24T14:04:41.658Z,56.97
2024-01-24T14:07:08.602Z,57.32
2024-01-24T14:09:37.117Z,57.38
2024-01-24T14:12:04.352Z,57.14
2024-01-24T14:14:32.411Z,56.96
2024-01-24T14:16:59.692Z,56.53
2024-01-24T14:19:26.878Z,56.72
2024-01-24T14:21:54.023Z,56.59
2024-01-24T14:24:21.431Z,56.71
2024-01-24T14:26:49.767Z,56.02
2024-01-24T14:29:16.515Z,56.58
2024-01-24T14:31:43.046Z,56.02
2024-01-24T14:34:10.245Z,56.47
2024-01-24T14:36:37.660Z,56.15
2024-01-24T14:39:07.261Z,56.52
2024-01-24T14:41:33.873Z,56.36
2024-01-24T14:44:00.560Z,56.56
2024-01-24T14:46:27.161Z,56.50
2024-01-24T14:48:54.157Z,56.79
2024-01-24T14:51:21.155Z,57.28
2024-01-24T14:53:48.011Z,57.07
2024-01-24T14:56:15.645Z,58.07
2024-01-24T14:58:42.769Z,57.84
2024-01-24T15:01:10.215Z,58.24
2024-01-24T15:03:37.251Z,58.26
2024-01-24T15:06:04.290Z,58.46
2024-01-24T15:08:31.004Z,58.73
2024-01-24T15:10:57.547Z,58.61
2024-01-24T15:13:24.138Z,59.30
2024-01-24T15:15:51.064Z,59.24
2024-01-24T15:18:18.186Z,58.78
2024-01-24T15:20:53.867Z,59.35
2024-01-24T15:23:30.022Z,58.95
2024-01-24T15:25:57.181Z,58.85
2024-01-24T15:28:23.743Z,58.90
2024-01-24T15:30:50.997Z,58.67
2024-01-24T15:33:19.261Z,59.23
2024-01-24T15:35:46.822Z,58.40
2024-01-24T15:38:13.633Z,58.15
2024-01-24T15:40:40.261Z,58.23
2024-01-24T15:43:09.819Z,58.42
2024-01-24T15:45:37.259Z,59.04
2024-01-24T15:48:04.701Z,59.23
2024-01-24T15:50:31.421Z,58.49
2024-01-24T15:52:58.166Z,59.41
2024-01-24T15:55:24.848Z,59.57
2024-01-24T15:57:52.015Z,59.63
2024-01-24T16:00:20.956Z,60.14
2024-01-24T16:02:47.670Z,60.02
2024-01-24T16:05:33.866Z,59.99
2024-01-24T16:08:03.083Z,61.05
2024-01-24T16:10:29.964Z,61.00
2024-01-24T16:12:57.076Z,60.63
2024-01-24T16:15:23.855Z,60.96
2024-01-24T16:17:50.468Z,61.67
2024-01-24T16:20:17.933Z,61.70
2024-01-24T16:22:51.019Z,62.08
2024-01-24T16:25:26.183Z,62.22
2024-01-24T16:27:53.755Z,62.33
2024-01-24T16:30:21.403Z,62.77
2024-01-24T16:32:53.962Z,62.90
2024-01-24T16:35:21.289Z,62.73
2024-01-24T16:37:47.938Z,63.04
2024-01-24T16:40:15.497Z,62.70
2024-01-24T16:42:42.621Z,63.26
2024-01-24T16:45:10.183Z,63.48
2024-01-24T16:47:36.899Z,63.80
2024-01-24T16:50:06.731Z,62.88
2024-01-24T16:52:33.817Z,62.99
2024-01-24T16:55:00.741Z,63.86
2024-01-24T16:57:27.635Z,63.83
2024-01-24T16:59:54.196Z,63.14
2024-01-24T17:02:21.128Z,63.41
2024-01-24T17:04:48.570Z,63.94
2024-01-24T17:07:15.264Z,64.08
2024-01-24T17:09:42.271Z,64.30
2024-01-24T17:12:09.150Z,63.89
2024-01-24T17:14:35.810Z,63.45
2024-01-24T17:17:04.606Z,63.65
2024-01-24T17:19:32.326Z,63.51
2024-01-24T17:21:59.185Z,63.64
2024-01-24T17:24:26.048Z,64.09
2024-01-24T17:26:53.145Z,63.47
2024-01-24T17:29:19.805Z,64.08
2024-01-24T17:31:49.053Z,64.25
2024-01-24T17:34:16.486Z,64.50
2024-01-24T17:36:43.287Z,64.35
2024-01-24T17:39:10.082Z,64.18
2024-01-24T17:41:37.085Z,65.12
2024-01-24T17:44:03.614Z,64.57
2024-01-24T17:46:30.402Z,65.10
2024-01-24T17:48:57.228Z,65.31
2024-01-24T17:51:24.011Z,64.70
2024-01-24T17:53:51.280Z,64.61
2024-01-24T17:56:18.804Z,65.16
2024-01-24T17:58:47.042Z,65.17
2024-01-24T18:01:13.899Z,65.65
2024-01-24T18:03:40.614Z,65.47
2024-01-24T18:06:07.402Z,65.58
2024-01-24T18:08:33.899Z,65.37
2024-01-24T18:11:00.415Z,65.68
2024-01-24T18:13:28.899Z,65.20
2024-01-24T18:15:56.352Z,65.88
2024-01-24T18:18:23.426Z,65.46
2024-01-24T18:20:50.703Z,65.93
2024-01-24T18:23:17.655Z,66.11
2024-01-24T18:25:45.216Z,65.24
2024-01-24T18:28:11.859Z,65.48
2024-01-24T18:30:38.435Z,65.18
2024-01-24T18:33:05.449Z,65.55
2024-01-24T18:35:32.098Z,65.40
2024-01-24T18:37:58.612Z,64.95
2024-01-24T18:40:25.103Z,65.57
2024-01-24T18:42:51.633Z,65.14
2024-01-24T18:45:18.419Z,65.31
2024-01-24T18:47:45.318Z,65.89
2024-01-24T18:50:12.136Z,65.71
2024-01-24T18:52:38.844Z,66.05
2024-01-24T18:55:06.309Z,65.84
2024-01-24T18:57:33.137Z,66.72
2024-01-24T19:00:00.256Z,66.52
2024-01-24T19:02:27.260Z,66.25
2024-01-24T19:04:54.924Z,66.91
2024-01-24T19:07:23.471Z,66.68
2024-01-24T19:09:50.217Z,66.18
2024-01-24T19:12:17.783Z,66.04
2024-01-24T19:14:45.222Z,66.56
2024-01-24T19:17:12.233Z,66.73
2024-01-24T19:19:39.513Z,66.28
2024-01-24T19:22:06.124Z,66.63
2024-01-24T19:24:34.610Z,66.30
2024-01-24T19:27:01.517Z,66.92
2024-01-24T19:29:28.263Z,66.66
2024-01-24T19:31:54.740Z,67.24
2024-01-24T19:34:21.772Z,67.17
2024-01-24T19:36:48.438Z,67.61
2024-01-24T19:39:15.165Z,67.26
2024-01-24T19:41:41.731Z,67.74
2024-01-24T19:44:08.304Z,67.65
2024-01-24T19:46:34.867Z,67.63
2024-01-24T19:49:01.489Z,66.98
2024-01-24T19:51:28.240Z,66.79
2024-01-24T19:53:56.166Z,67.79
2024-01-24T19:56:23.262Z,67.74
2024-01-24T19:58:49.850Z,67.76
2024-01-24T20:01:16.661Z,67.81
2024-01-24T20:03:43.281Z,67.41
2024-01-24T20:06:10.336Z,67.55
2024-01-24T20:08:36.953Z,68.34
2024-01-24T20:11:04.546Z,68.20
2024-01-24T20:13:32.271Z,68.81
2024-01-24T20:15:59.282Z,68.46
2024-01-24T20:18:26.602Z,68.61
2024-01-24T20:20:53.329Z,68.73
2024-01-24T20:23:19.861Z,68.12
2024-01-24T20:25:47.994Z,68.69
2024-01-24T20:28:14.692Z,68.34
2024-01-24T20:30:41.325Z,68.32
2024-01-24T20:33:07.958Z,69.21
2024-01-24T20:35:34.511Z,68.77
2024-01-24T20:38:01.725Z,68.58
2024-01-24T20:40:28.294Z,69.20
2024-01-24T20:42:54.999Z,68.75
2024-01-24T20:45:21.571Z,68.45
2024-01-24T20:47:50.470Z,68.27
2024-01-24T20:50:21.615Z,68.37
2024-01-24T20:52:48.204Z,68.74
2024-01-24T20:55:14.799Z,68.54
2024-01-24T20:57:41.371Z,68.77
2024-01-24T21:00:09.850Z,68.88
2024-01-24T21:02:36.686Z,69.00
2024-01-24T21:05:03.810Z,68.74
2024-01-24T21:07:30.596Z,68.29
2024-01-24T21:09:57.854Z,68.95
2024-01-24T21:12:24.403Z,68.31
2024-01-24T21:14:51.163Z,68.73
2024-01-24T21:17:18.247Z,68.87
2024-01-24T21:19:44.843Z,68.13
2024-01-24T21:22:11.560Z,68.20
2024-01-24T21:24:38.430Z,67.73
2024-01-24T21:27:05.217Z,68.64
2024-01-24T21:29:31.731Z,67.71
2024-01-24T21:31:59.486Z,68.46
2024-01-24T21:34:26.190Z,68.37
2024-01-24T21:36:52.952Z,68.00
2024-01-24T21:39:19.562Z,67.99
2024-01-24T21:41:46.045Z,67.81
2024-01-24T21:44:12.579Z,68.25
2024-01-24T21:46:39.074Z,68.41
2024-01-24T21:49:05.709Z,68.44
2024-01-24T21:51:32.360Z,68.00
2024-01-24T21:53:58.986Z,68.45
2024-01-24T21:56:25.906Z,67.86
2024-01-24T21:58:55.979Z,68.12
2024-01-24T22:01:24.040Z,68.87
2024-01-24T22:03:50.962Z,69.10
2024-01-24T22:06:17.725Z,68.96
2024-01-24T22:08:44.462Z,68.72
2024-01-24T22:11:10.978Z,68.81
2024-01-24T22:13:37.523Z,68.38
2024-01-24T22:16:05.488Z,68.92
2024-01-24T22:18:37.060Z,68.81
2024-01-24T22:21:13.661Z,68.29
2024-01-24T22:23:40.657Z,68.43
2024-01-24T22:26:07.219Z,68.35
2024-01-24T22:28:33.732Z,68.09
2024-01-24T22:31:00.399Z,68.01
2024-01-24T22:33:27.129Z,67.97
2024-01-24T22:35:54.094Z,67.41
2024-01-24T22:38:20.757Z,67.29
2024-01-24T22:40:47.358Z,67.67
2024-01-24T22:43:14.006Z,67.19
2024-01-24T22:45:40.800Z,66.95
2024-01-24T22:48:07.919Z,67.27
2024-01-24T22:50:34.680Z,66.20
2024-01-24T22:53:01.325Z,66.48
2024-01-24T22:55:28.087Z,66.43
2024-01-24T22:57:54.946Z,66.65
2024-01-24T23:00:23.034Z,66.29
2024-01-24T23:02:50.035Z,66.47
2024-01-24T23:05:17.206Z,65.60
2024-01-24T23:07:44.237Z,65.71
2024-01-24T23:10:11.405Z,65.68
2024-01-24T23:12:38.628Z,66.24
2024-01-24T23:15:06.355Z,65.30
2024-01-24T23:17:32.985Z,65.85
2024-01-24T23:19:59.984Z,65.58
2024-01-24T23:22:27.765Z,66.24
2024-01-24T23:24:54.421Z,66.23
2024-01-24T23:27:21.110Z,66.53
2024-01-24T23:29:47.654Z,66.54
2024-01-24T23:32:14.196Z,66.38
2024-01-24T23:34:40.911Z,66.52
2024-01-24T23:37:07.611Z,66.65
2024-01-24T23:39:34.272Z,66.55
2024-01-24T23:42:01.207Z,66.98
2024-01-24T23:44:27.704Z,66.94
2024-01-24T23:46:54.245Z,66.69
2024-01-24T23:49:21.065Z,66.73
2024-01-24T23:51:48.069Z,67.14
2024-01-24T23:54:14.728Z,66.99
2024-01-24T23:56:41.275Z,66.63
2024-01-24T23:59:09.177Z,67.13
